Tiempo atmosférico en la estación meteorológica de Puerto de Navacerrada, Madrid (1894 m.)



Fecha
DESCASC
Temp. máxima en grados centígrados (hora)
DESCASC
Temp. mínima en grados centígrados (hora)
DESCASC
Temp. media en grados centígrados
DESCASC
Racha de viento máxima en m/sg (hora)
DESCASC
Velocidad máxima media en intervalos de 10 minutos(hora)
DESCASC
Precipitaciones diarias en mm
DESCASC
Precipitaciones de 00:00 a 06:00 en mm
DESCASC
Precipitaciones de 06:00 a 12:00 en mm
DESCASC
Precipitaciones de 12:00 a 18:00 en mm
DESCASC
Precipitaciones de 18:00 a 24:00 en mm
DESCASC
31-03-2020 0.8 (20:40) -5.3 (00:00) -2.3 19.44 (09:50) 10.56 (09:10) 31.2 0.6 7.8 11.2 11.6
30-03-2020 2.7 (01:00) -5.5 (20:50) -1.4 9.17 (20:40) 5 (20:40) 4.4 0 0 2 2.4
29-03-2020 9.1 (15:40) 0.9 (00:00) 5 8.33 (15:00) 3.89 (16:40) 0 0 0 0 0
28-03-2020 8.2 (13:30) -3.2 (-00:0) 2.5 9.17 (09:20) 5.56 (09:20) 0 0 0 0 0
27-03-2020 3.3 (14:20) -4.2 (-00:0) -0.4 14.72 (15:10) 6.39 (17:00) 0 0 0 0 0
26-03-2020 3.5 (14:20) -3.5 (-00:0) 0 12.5 (14:30) 7.78 (05:10) 0 0 0 0 0
25-03-2020 6.8 (14:50) -0.5 (-00:0) 3.2 11.11 (16:00) 5.56 (20:10) 0 0 0 0 0
24-03-2020 5.8 (16:10) 0 (00:00) 2.9 16.11 (10:30) 8.06 (05:40) 0 0 0 0 0
23-03-2020 4.5 (15:30) -0.2 (00:00) 2.1 15.28 (21:50) 8.89 (21:00) 2.2 0.6 0.2 1.4 0
22-03-2020 3.4 (12:00) -1 (04:20) 1.2 12.5 (19:20) 5.83 (19:20) 2.4 0.4 0.4 1.2 0.4
21-03-2020 2.5 (14:20) -0.8 (-00:0) 0.8 14.17 (02:30) 7.5 (02:30) 4.8 0 1 3.2 0.6
20-03-2020 4.6 (14:50) 0.9 (00:00) 2.7 14.17 (01:40) 8.89 (09:50) 0.2 0.2 0 0 0
19-03-2020 9.4 (13:50) 2.2 (00:00) 5.8 15.28 (23:00) 8.06 (22:50) 0 0 0 0 0
18-03-2020 10.2 (13:40) 2.6 (00:00) 6.4 13.61 (11:30) 8.06 (11:30) 0 0 0 0 0
17-03-2020 3.3 (22:00) -3.1 (-00:0) 0.1 25.83 (10:00) 13.33 (12:10) 16.4 11.4 5 0 0
16-03-2020 1.5 (00:00) -4.6 (-00:0) -1.5 19.72 (23:40) 10.28 (23:50) 30.2 0.2 10.4 10.8 8.8
15-03-2020 9.6 (13:00) 1.5 (00:00) 5.6 19.17 (18:50) 8.61 (18:50) 3.4 0 0 0 3.4
14-03-2020 11.8 (12:10) 3.4 (00:00) 7.6 6.67 (23:40) 5 (23:00) 0 0 0 0 0
13-03-2020 14.8 (15:00) 5.8 (23:59) 10.3 7.22 (14:10) 3.33 (10:50) 0 0 0 0 0
12-03-2020 15.8 (14:20) 8.9 (00:00) 12.3 13.06 (13:10) 6.94 (07:10) 0 0 0 0 0
11-03-2020 18.9 (15:10) 7.5 (00:00) 13.2 7.78 (03:40) 3.89 (01:30) 0 0 0 0 0
10-03-2020 15.1 (15:50) 2.1 (00:00) 8.6 11.11 (00:30) 6.94 (00:10) 0 0 0 0 0
09-03-2020 4 (16:40) -1.9 (-00:0) 1.1 19.72 (02:00) 9.17 (02:00) 0 0 0 0 0
08-03-2020 6.9 (15:20) 0.2 (00:00) 3.6 15.28 (23:59) 5.83 (23:30) 0 0 0 0 0
07-03-2020 3 (17:00) -5.7 (-00:0) -1.3 16.11 (01:20) 8.06 (00:50) 0 0 0 0 0
06-03-2020 -1.8 (04:30) -4.8 (-00:0) -3.3 28.61 (11:40) 10.83 (11:40) 1.2 1.2 0 0 0
05-03-2020 4.9 (07:10) -2.2 (-00:0) 1.4 23.61 (09:00) 11.67 (08:50) 5 0 4.2 0 0.8
04-03-2020 4.9 (00:00) 2 (00:00) 3.5 17.78 (01:10) 7.5 (09:20) 9.2 8.4 0.8 0 0
03-03-2020 5 (19:40) -3.9 (-00:0) 0.5 26.11 (13:50) 8.89 (08:50) 19.2 0.4 4 4.2 10.6
02-03-2020 3.8 (00:00) -3.9 (-00:0) -0.1 33.61 (06:30) 15 (05:00) 14.2 5.6 4.2 4.4 0

Gráficas

Temp. máximas Temp. mínimas Temp. medias Precipitaciones Rachas de viento máximas Velocidades máximas media en intervalos de 10 minutos

Datos horarios

Fecha y hora oficial Temperatura (ºC) Velocidad del viento (km/h) Dirección del viento Racha (km/h) Dirección de racha Precipitación (mm) Presión (hPa) Tendencia (hPa) Humedad (%)
2020-03-31 23:00:00 0.5 35 Sudeste 68 Sudeste 4.8 802.4 1.1 100
2020-03-31 22:00:00 0.1 23 Sudeste 57 Sur 3.2 802.1 1 100
2020-03-31 21:00:00 0.6 18 Sur 46 Sudeste 1.8 801.4 0.7 100
2020-03-31 20:00:00 0.7 28 Sudeste 49 Sur 1 801.3 1.1 100
2020-03-31 19:00:00 0.4 21 Sudeste 48 Sudeste 0.2 801.1 1.3 100
2020-03-31 18:00:00 0.7 26 Sudeste 53 Sur 0.2 800.7 1 100
2020-03-31 17:00:00 0.6 37 Sur 66 Sur 1.8 800.2 0.8 100
2020-03-31 16:00:00 0.1 33 Sudeste 61 Sudeste 2.2 799.8 0.5 100
2020-03-31 15:00:00 0.1 32 Sudeste 61 Sudeste 2 799.7 0.6 100
2020-03-31 14:00:00 0 14 Sudeste 52 Sudeste 1.6 799.4 0.6 100
2020-03-31 13:00:00 -0.8 29 Este 55 Este 3.4 799.3 0.6 100
2020-03-31 12:00:00 -1.8 30 Sudeste 60 Sudeste 2.6 799.1 0.6 100
2020-03-31 11:00:00 -2.1 31 Sudeste 59 Sudeste 1.8 798.8 0.4 100
2020-03-31 10:00:00 -2.1 31 Sudeste 70 Sudeste 1.6 798.7 0.3 100
2020-03-31 09:00:00 -2.1 33 Sudeste 61 Sudeste 1 798.5 -0.2 100
2020-03-31 08:00:00 -2.3 25 Sudeste 46 Sudeste 0.6 798.4 -0.4 100
2020-03-31 07:00:00 -2.3 27 Sudeste 54 Sudeste 0.2 798.4 -0.9 100
2020-03-31 06:00:00 -2.6 27 Sudeste 46 Sudeste 0 798.7 -1.2 100
2020-03-31 05:00:00 -3.1 22 Sudeste 36 Sudeste 0 798.8 -1.8 100
2020-03-31 04:00:00 -3.1 17 Sudeste 39 Sudeste 0.2 799.3 -2 100
2020-03-31 03:00:00 -3.2 24 Sudeste 40 Sudeste 0.2 799.9 -2.1 100
2020-03-31 02:00:00 -4.2 5 Sudoeste 22 Sudeste 0 800.6 -1.4 100
2020-03-31 01:00:00 -5.2 5 Este 14 Este 0.2 801.3 -0.9 100
2020-03-31 00:00:00 -5.3 6 Este 17 Este 0.6 802 -0.3 99
2020-03-30 23:00:00 -5.1 10 Este 26 Este 0.2 802 -0.5 99
2020-03-30 22:00:00 -5.2 10 Este 23 Nordeste 0.2 802.2 -0.7 100
2020-03-30 21:00:00 -5.5 15 Este 33 Nordeste 0.4 802.3 -0.7 100
2020-03-30 20:00:00 -4.9 8 Nordeste 19 Norte 0.6 802.5 -1 100
2020-03-30 19:00:00 -4.8 9 Noroeste 21 Noroeste 0.4 802.9 -0.9 100
2020-03-30 18:00:00 -4.7 11 Noroeste 22 Norte 1 803 -1.5 99
2020-03-30 17:00:00 -4.2 11 Norte 22 Norte 0.4 803.5 -1.5 98
2020-03-30 16:00:00 -4 5 Noroeste 14 Noroeste 0 803.8 -1.4 100
2020-03-30 15:00:00 -3.5 8 Noroeste 18 Norte 0.2 804.5 -1.1 100
2020-03-30 14:00:00 -3.5 7 Noroeste 16 Norte 0.4 805 -0.8 100
2020-03-30 13:00:00 -4.4 6 Norte 15 Norte 0 805.2 -0.6 100
2020-03-30 12:00:00 -4 7 Noroeste 19 Norte 0 805.6 -0.1 100
2020-03-30 11:00:00 -3.5 9 Noroeste 19 Norte 0 805.8 -0.1 100
2020-03-30 10:00:00 -2.9 5 Noroeste 13 Norte 0 805.8 -0.1 100
2020-03-30 09:00:00 -3 4 Nordeste 21 Norte 0 805.7 -0.6 100
2020-03-30 08:00:00 -3.1 6 Noroeste 11 Noroeste 0 805.9 -0.8 100
2020-03-30 07:00:00 -2.9 6 Norte 16 Noroeste 0 805.9 -1.4 100
2020-03-30 06:00:00 -2.4 10 Norte 19 Norte 0 806.3 -1.6 100
2020-03-30 05:00:00 -0.9 5 Norte 14 Norte 0 806.7 -1.7 86
2020-03-30 04:00:00 1 7 Noroeste 13 Norte 0 807.3 -1.6 78
2020-03-30 03:00:00 1.3 2 Noroeste 15 Norte 0 807.9 -1.4 73
2020-03-30 02:00:00 1.9 8 Norte 14 Norte 0 808.4 -1.2 70
2020-03-30 01:00:00 2.7 5 Norte 11 Norte 0 808.9 -0.9 65
2020-03-30 00:00:00 2.6 10 Norte 17 Norte 0 809.3 -0.4 67
2020-03-29 23:00:00 2.2 6 Norte 11 Norte 0 809.6 -0.3 68
2020-03-29 22:00:00 2.4 9 Noroeste 19 Norte 0 809.8 -0.1 70
2020-03-29 21:00:00 3.4 10 Norte 20 Noroeste 0 809.7 -0.2 71
2020-03-29 20:00:00 5.5 7 Noroeste 18 Noroeste 0 809.9 -0.3 65
2020-03-29 19:00:00 6.8 6 Noroeste 22 Noroeste 0 809.9 -0.7 59
2020-03-29 18:00:00 7.6 7 Noroeste 27 Norte 0 809.9 -1.2 53
2020-03-29 17:00:00 8.5 11 Noroeste 30 Noroeste 0 810.2 -1.1 52
2020-03-29 16:00:00 8.1 10 Norte 21 Norte 0 810.6 -1 53
2020-03-29 15:00:00 7.8 12 Norte 30 Norte 0 811.1 -0.7 56
2020-03-29 14:00:00 7.5 6 Norte 24 Norte 0 811.3 -0.5 55
2020-03-29 13:00:00 6.1 10 Noroeste 26 Noroeste 0 811.6 0.1 55
2020-03-29 12:00:00 6.4 9 Noroeste 19 Noroeste 0 811.8 0.3 55
2020-03-29 11:00:00 5 6 Norte 15 Norte 0 811.8 0.6 59
2020-03-29 10:00:00 3.9 4 Norte 13 Norte 0 811.5 0.5 64
2020-03-29 09:00:00 1.5 5 Norte 13 Norte 0 811.5 0.4 71
2020-03-29 08:00:00 1 6 Nordeste 11 Norte 0 811.2 -0.1 72
2020-03-29 07:00:00 1 5 Nordeste 9 Norte 0 811 -0.6 72
2020-03-29 06:00:00 1.1 2 Sudeste 6 Este 0 811.1 -0.8 71
2020-03-29 05:00:00 1.5 2 Oeste 5 Oeste 0 811.3 -0.8 69
2020-03-29 03:00:00 1.6 3 Noroeste 12 Norte 0 811.9 -0.2 72
2020-03-29 01:00:00 1.7 9 Norte 15 Norte 0 812.1 0.1 71
2020-03-29 00:00:00 1.9 9 Norte 13 Norte 0 812.3 0.7 72
2020-03-28 23:00:00 2.2 5 Nordeste 13 Norte 0 812.1 0.9 71
2020-03-28 22:00:00 2.4 10 Nordeste 13 Nordeste 0 812 1.2 70
2020-03-28 21:00:00 2 4 Este 19 Sur 0 811.6 1 72
2020-03-28 20:00:00 2.3 13 Sur 22 Sur 0 811.2 1 66
2020-03-28 19:00:00 3.9 11 Sur 23 Sur 0 810.8 0.6 65
2020-03-28 18:00:00 5.1 12 Sur 24 Sur 0 810.6 0.4 62
2020-03-28 17:00:00 5.9 10 Sur 24 Sur 0 810.2 -0.1 60
2020-03-28 16:00:00 7 7 Sur 23 Sur 0 810.2 -0.1 56
2020-03-28 15:00:00 7.4 7 Sudoeste 18 Sudoeste 0 810.2 -0.1 52
2020-03-28 14:00:00 6.9 7 Nordeste 18 Nordeste 0 810.3 0.4 51
2020-03-28 13:00:00 7.7 6 Este 22 Sudeste 0 810.3 0.8 49
2020-03-28 12:00:00 7.5 8 Sudeste 22 Sudeste 0 810.3 1.3 51
2020-03-28 11:00:00 6 10 Sudeste 23 Este 0 809.9 1.2 52
2020-03-28 10:00:00 3.8 7 Este 33 Sudeste 0 809.5 1.4 48
2020-03-28 09:00:00 1.3 6 Sudeste 16 Este 0 809 1.2 58
2020-03-28 08:00:00 -2.1 4 Norte 19 Nordeste 0 808.7 1.2 70
2020-03-28 07:00:00 -2.4 8 Sudeste 22 Este 0 808.1 0.7 72
2020-03-28 06:00:00 -2.4 8 Sudeste 23 Nordeste 0 807.8 0.3 73
2020-03-28 05:00:00 -2.4 6 Este 21 Nordeste 0 807.5 0.1 70
2020-03-28 04:00:00 -2.6 6 Este 22 Este 0 807.4 0.3 74
2020-03-28 03:00:00 -3.1 8 Este 29 Este 0 807.5 0.5 88
2020-03-28 02:00:00 -2.8 10 Este 24 Este 0 807.4 0.4 87
2020-03-28 01:00:00 -2.4 11 Este 27 Este 0 807.1 0.5 86
2020-03-28 00:00:00 -2.5 10 Este 32 Este 0 807 0.8 85
2020-03-27 23:00:00 -1.9 9 Sudeste 36 Este 0 807 1.3 80
2020-03-27 22:00:00 -2.3 13 Este 32 Este 0 806.6 1.4 82
2020-03-27 21:00:00 -2 16 Sudeste 30 Este 0 806.2 1.3 85
2020-03-27 20:00:00 -1.7 13 Sudeste 24 Sur 0 805.7 1.3 80
2020-03-27 19:00:00 0.5 5 Sudeste 22 Este 0 805.2 1.1 62
2020-03-27 18:00:00 1.1 14 Este 36 Sudeste 0 804.9 1.1 61
2020-03-27 17:00:00 1.1 23 Este 46 Sudeste 0 804.4 0.5 60
2020-03-27 16:00:00 2.3 13 Este 53 Este 0 804.1 0.3 61
2020-03-27 15:00:00 2.7 19 Este 46 Este 0 803.8 -0.1 57
2020-03-27 14:00:00 3 15 Este 45 Este 0 803.9 0.5 61
2020-03-27 13:00:00 2.2 21 Este 44 Este 0 803.8 1 57
2020-03-27 12:00:00 -0.6 15 Este 24 Este 0 803.9 1.5 66
2020-03-27 11:00:00 -0.7 6 Nordeste 23 Sur 0 803.4 1.4 73
2020-03-27 10:00:00 0.2 8 Sudeste 23 Este 0 802.8 1.1 77
2020-03-27 09:00:00 -2.6 9 Este 20 Este 0 802.4 0.8 87
2020-03-27 08:00:00 -3.7 7 Sudeste 18 Sur 0 802 0.3 91
2020-03-27 07:00:00 -4.2 11 Sudeste 24 Sur 0 801.7 0 92
2020-03-27 06:00:00 -3.7 10 Sur 22 Sur 0 801.6 -0.3 90
2020-03-27 05:00:00 -3.8 5 Sudeste 24 Sur 0 801.7 -0.7 91
2020-03-27 04:00:00 -3.7 10 Sudeste 29 Sur 0 801.7 -1.2 93
2020-03-27 03:00:00 -2.4 15 Sur 25 Sur 0 801.9 -1 87
2020-03-27 02:00:00 -1.4 8 Oeste 15 Oeste 0 802.4 -0.6 84
2020-03-27 01:00:00 -1.6 3 Norte 8 Nordeste 0 802.9 0.1 85
2020-03-27 00:00:00 -2.2 5 Este 16 Este 0 802.9 -0.2 87
2020-03-26 23:00:00 -2.1 9 Este 18 Norte 0 803 0 86
2020-03-26 22:00:00 -1.9 13 Norte 21 Norte 0 802.8 -0.3 85
2020-03-26 21:00:00 -1.7 14 Norte 23 Norte 0 803.1 0.2 84
2020-03-26 20:00:00 -1.8 16 Norte 32 Norte 0 803 0.3 84
2020-03-26 19:00:00 -0.2 11 Norte 27 Norte 0 803.1 0.3 77
2020-03-26 18:00:00 1.5 14 Norte 39 Noroeste 0 802.9 0 67
2020-03-26 17:00:00 2.3 14 Norte 42 Norte 0 802.7 -0.4 64
2020-03-26 16:00:00 2.3 22 Norte 44 Norte 0 802.8 -0.6 66
2020-03-26 15:00:00 3.1 18 Norte 45 Noroeste 0 802.9 -0.6 61
2020-03-26 14:00:00 2.9 17 Norte 45 Norte 0 803.1 -0.5 64
2020-03-26 13:00:00 1.7 19 Norte 44 Noroeste 0 803.4 -0.2 61
2020-03-26 12:00:00 1.6 18 Norte 41 Norte 0 803.5 -0.1 57
2020-03-26 11:00:00 0.7 19 Norte 42 Norte 0 803.6 -0.1 63
2020-03-26 10:00:00 -0.6 20 Norte 42 Norte 0 803.6 0 47
2020-03-26 09:00:00 -2.3 27 Norte 45 Norte 0 803.6 0 42
2020-03-26 08:00:00 -3.2 24 Norte 43 Norte 0 803.7 0.1 42
2020-03-26 07:00:00 -3.4 27 Norte 41 Norte 0 803.6 -0.6 38
2020-03-26 06:00:00 -3.3 27 Norte 43 Norte 0 803.6 -1.2 35
2020-03-26 05:00:00 -2.8 25 Norte 40 Norte 0 803.6 -2.1 38
2020-03-26 04:00:00 -2 20 Norte 32 Norte 0 804.2 -1.9 36
2020-03-26 03:00:00 -1.2 15 Noroeste 28 Norte 0 804.8 -1.7 42
2020-03-26 02:00:00 0 15 Norte 24 Norte 0 805.7 -0.9 50
2020-03-26 01:00:00 0.9 15 Norte 26 Norte 0 806.1 -0.6 50
2020-03-26 00:00:00 0.3 13 Norte 27 Noroeste 0 806.5 -0.5 78
2020-03-25 23:00:00 1.3 14 Norte 27 Norte 0 806.6 -0.4 61
2020-03-25 22:00:00 2 14 Norte 33 Norte 0 806.7 -0.3 56
2020-03-25 21:00:00 2.5 18 Norte 32 Norte 0 807 -0.1 54
2020-03-25 20:00:00 2.8 18 Norte 38 Noroeste 0 807 -0.2 60
2020-03-25 19:00:00 4.3 13 Noroeste 39 Noroeste 0 807 -0.6 66
2020-03-25 18:00:00 5.3 15 Noroeste 40 Noroeste 0 807.1 -0.9 54
2020-03-25 17:00:00 6.7 16 Noroeste 40 Noroeste 0 807.2 -1.2 57
2020-03-25 16:00:00 6.1 12 Noroeste 40 Noroeste 0 807.6 -1.1 64
2020-03-25 15:00:00 5.8 8 Noroeste 33 Noroeste 0 808 -0.7 67
2020-03-25 14:00:00 5.7 14 Noroeste 32 Norte 0 808.4 -0.1 65
2020-03-25 13:00:00 5 11 Noroeste 28 Noroeste 0 808.7 0.1 76
2020-03-25 12:00:00 4.7 13 Norte 35 Norte 0 808.7 0.3 75
2020-03-25 11:00:00 2.7 12 Norte 25 Norte 0 808.5 0.3 90
2020-03-25 10:00:00 0.9 7 Norte 24 Norte 0 808.6 0.6 100
2020-03-25 09:00:00 0.2 11 Norte 23 Norte 0 808.4 0.2 100
2020-03-25 08:00:00 0.1 9 Norte 20 Norte 0 808.2 -0.1 100
2020-03-25 07:00:00 0.1 12 Nordeste 19 Norte 0 808 -0.5 99
2020-03-25 06:00:00 0.3 11 Norte 19 Norte 0 808.2 -0.7 100
2020-03-25 05:00:00 0.3 5 Este 12 Sudeste 0 808.3 -0.7 100
2020-03-25 04:00:00 0.5 4 Sur 17 Sur 0 808.5 -0.7 100
2020-03-25 03:00:00 -0.2 12 Sur 30 Sur 0 808.9 -0.4 100
2020-03-25 02:00:00 -0.3 19 Sur 28 Sur 0 809 -0.6 100
2020-03-25 01:00:00 0.3 16 Sur 26 Sur 0 809.2 -0.3 97
2020-03-25 00:00:00 0.9 14 Sur 27 Sur 0 809.3 -0.2 95
2020-03-24 23:00:00 1.2 7 Sudeste 19 Sur 0 809.6 0.4 94
2020-03-24 22:00:00 1.7 12 Sur 26 Este 0 809.5 0.5 90
2020-03-24 21:00:00 1.7 10 Este 21 Este 0 809.5 0.8 88
2020-03-24 20:00:00 2.2 8 Este 26 Este 0 809.2 0.7 87
2020-03-24 19:00:00 3 9 Este 31 Este 0 809 0.5 86
2020-03-24 18:00:00 4.1 13 Este 30 Este 0 808.7 0 81
2020-03-24 17:00:00 4.7 18 Este 36 Este 0 808.5 -0.8 82
2020-03-24 16:00:00 5.7 10 Este 35 Este 0 808.5 -1.1 77
2020-03-24 15:00:00 4.6 17 Este 33 Nordeste 0 808.7 -0.8 85
2020-03-24 14:00:00 3.7 10 Este 31 Nordeste 0 809.3 -0.2 88
2020-03-24 13:00:00 3.4 9 Nordeste 36 Nordeste 0 809.6 0.1 89
2020-03-24 12:00:00 4 18 Nordeste 41 Nordeste 0 809.5 0.4 88
2020-03-24 11:00:00 2.9 23 Nordeste 58 Este 0 809.5 0.8 93
2020-03-24 10:00:00 1.2 18 Este 36 Nordeste 0 809.5 0.7 100
2020-03-24 09:00:00 0.9 9 Este 40 Nordeste 0 809.1 0.6 99
2020-03-24 08:00:00 0.4 19 Este 40 Este 0 808.7 0.5 100
2020-03-24 07:00:00 0.2 10 Este 35 Este 0 808.8 0.2 100
2020-03-24 06:00:00 0.6 21 Este 56 Este 0 808.5 -0.3 98
2020-03-24 05:00:00 0.6 28 Este 56 Este 0 808.2 -0.9 100
2020-03-24 04:00:00 0.8 23 Este 44 Este 0 808.6 -0.6 100
2020-03-24 03:00:00 1.1 13 Este 42 Este 0 808.8 -0.5 100
2020-03-24 02:00:00 1.4 19 Este 38 Este 0 809.1 -0.2 100
2020-03-24 01:00:00 1.4 20 Este 44 Este 0 809.2 0.3 100
2020-03-24 00:00:00 1.4 19 Este 47 Este 0 809.3 0.7 100
2020-03-23 23:00:00 1.5 25 Este 50 Este 0 809.3 1.2 100
2020-03-23 22:00:00 1.3 25 Este 55 Este 0 808.9 0.7 98
2020-03-23 21:00:00 1.3 32 Este 54 Este 0 808.6 0.7 98
2020-03-23 20:00:00 0.9 23 Este 51 Este 0 808.1 0.5 98
2020-03-23 19:00:00 1.5 16 Este 50 Este 0 808.2 0.7 98
2020-03-23 18:00:00 2.7 21 Este 42 Este 0 807.9 0 94
2020-03-23 17:00:00 3.9 19 Este 46 Sudeste 0 807.6 -0.7 88
2020-03-23 16:00:00 3.4 28 Este 53 Sudeste 0 807.5 -1.1 90
2020-03-23 15:00:00 3.6 16 Este 39 Este 0 807.9 -0.5 94
2020-03-23 14:00:00 4.3 11 Este 37 Este 0.6 808.3 0.1 100
2020-03-23 13:00:00 2.2 9 Este 36 Este 0.8 808.6 0.4 97
2020-03-23 12:00:00 3.5 19 Este 37 Este 0 808.4 0.8 99
2020-03-23 11:00:00 3 14 Este 38 Sudeste 0.2 808.2 0.9 97
2020-03-23 10:00:00 1.7 13 Este 35 Este 0 808.2 1.3 100
2020-03-23 09:00:00 1 12 Este 35 Este 0 807.6 0.8 100
2020-03-23 08:00:00 0 18 Este 35 Nordeste 0 807.3 0.7 100
2020-03-23 07:00:00 -0.1 8 Este 31 Este 0 806.9 0.5 100
2020-03-23 06:00:00 0.1 6 Este 24 Este 0.2 806.8 0.3 100
2020-03-23 05:00:00 0.3 4 Este 32 Este 0 806.6 -0.1 100
2020-03-23 04:00:00 0.4 14 Este 31 Este 0.2 806.4 -0.3 100
2020-03-23 03:00:00 0.5 8 Este 28 Este 0 806.5 -0.5 100
2020-03-23 02:00:00 0.3 7 Este 35 Este 0 806.7 -0.4 100
2020-03-23 01:00:00 0.4 14 Este 30 Este 0.2 806.7 -0.2 100
2020-03-23 00:00:00 0.5 10 Este 34 Este 0 807 0.4 100
2020-03-22 23:00:00 0.8 12 Este 33 Este 0.2 807.1 1.1 100
2020-03-22 22:00:00 1.1 13 Este 38 Nordeste 0 806.9 1.5 100
2020-03-22 21:00:00 1.2 13 Este 30 Este 0.2 806.6 1.4 100
2020-03-22 20:00:00 1.4 11 Este 45 Este 0 806 1.2 100
2020-03-22 19:00:00 1.7 19 Este 41 Este 0 805.4 0.6 100
2020-03-22 18:00:00 2 10 Este 37 Este 0 805.2 0.1 99
2020-03-22 17:00:00 2.1 13 Este 40 Nordeste 0.2 804.8 -0.4 100
2020-03-22 16:00:00 2.1 12 Este 20 Nordeste 0.4 804.8 -0.7 100
2020-03-22 15:00:00 1.8 10 Este 25 Nordeste 0 805.1 -0.4 100
2020-03-22 14:00:00 2.2 7 Este 18 Este 0.2 805.2 -0.1 99
2020-03-22 13:00:00 2.1 6 Nordeste 15 Nordeste 0.4 805.5 0.5 100
2020-03-22 12:00:00 3.2 6 Nordeste 23 Este 0.2 805.5 1 97
2020-03-22 11:00:00 2.6 6 Este 17 Este 0 805.3 1.2 98
2020-03-22 10:00:00 1 6 Nordeste 17 Este 0 805 1.1 100
2020-03-22 09:00:00 -0.3 4 Este 20 Nordeste 0.2 804.5 0.8 100
2020-03-22 08:00:00 -0.8 11 Este 20 Este 0 804.1 0.6 100
2020-03-22 07:00:00 -0.9 10 Nordeste 18 Nordeste 0 803.9 0.3 100
2020-03-22 06:00:00 -0.9 9 Este 18 Este 0 803.7 -0.3 100
2020-03-22 05:00:00 -0.9 5 Este 20 Este 0 803.5 -0.7 100
2020-03-22 04:00:00 -0.9 11 Este 22 Este 0 803.6 -0.8 100
2020-03-22 03:00:00 -0.7 9 Este 16 Este 0.2 804 -0.6 100
2020-03-22 02:00:00 -0.7 5 Este 15 Sudeste 0 804.2 -0.4 100
2020-03-22 01:00:00 -0.7 12 Sudeste 24 Sudeste 0.2 804.4 0 100
2020-03-22 00:00:00 -0.6 14 Sudeste 31 Sudeste 0.2 804.6 0.3 100
2020-03-21 23:00:00 -0.5 22 Sudeste 37 Sudeste 0 804.6 0.6 100
2020-03-21 22:00:00 -0.8 21 Sudeste 34 Sur 0 804.4 0.5 100
2020-03-21 21:00:00 -0.7 24 Sudeste 41 Sudeste 0 804.3 0.5 100
2020-03-21 20:00:00 0 18 Sudeste 32 Sur 0.2 804 0.1 100
2020-03-21 19:00:00 -0.3 18 Sur 28 Sur 0.2 803.9 -0.1 100
2020-03-21 18:00:00 -0.3 19 Sur 32 Sur 1 803.8 -0.3 100
2020-03-21 17:00:00 0.2 15 Sur 30 Sur 1.2 803.9 -0.6 100
2020-03-21 16:00:00 1.4 11 Sur 30 Sur 0.4 804 -0.9 100
2020-03-21 15:00:00 2.2 10 Sudeste 33 Sudeste 0 804.1 -1 100
2020-03-21 14:00:00 2.2 15 Sudeste 32 Sudeste 0.2 804.5 -0.5 100
2020-03-21 13:00:00 2 12 Sudeste 36 Sudeste 0.4 804.9 -0.1 100
2020-03-21 12:00:00 1.3 14 Sudeste 42 Sudeste 0.6 805.1 0.2 100
2020-03-21 11:00:00 1 19 Sudeste 47 Sudeste 0.4 805 0.2 100
2020-03-21 10:00:00 1.4 19 Sudeste 42 Sudeste 0 805 0 100
2020-03-21 09:00:00 1.5 24 Sudeste 36 Sudeste 0 804.9 -0.3 100
2020-03-21 08:00:00 0.7 24 Sudeste 35 Sudeste 0 804.8 -0.8 100
2020-03-21 07:00:00 0.8 9 Sur 23 Sur 0 805 -0.9 100
2020-03-21 06:00:00 0.6 11 Sudeste 35 Sudeste 0 805.2 -1.3 100
2020-03-21 05:00:00 0.5 25 Sudeste 43 Este 0 805.6 -1.2 100
2020-03-21 04:00:00 0.3 17 Sudeste 40 Sudeste 0 805.9 -1.3 100
2020-03-21 03:00:00 1 19 Sudeste 51 Sur 0 806.5 -1 100
2020-03-21 02:00:00 1.2 19 Sudeste 46 Sudeste 0 806.8 -0.9 100
2020-03-21 01:00:00 1 21 Sudeste 37 Sudeste 0 807.2 -0.7 100
2020-03-21 00:00:00 0.9 14 Sudeste 31 Sudeste 0 807.5 -0.6 100
2020-03-20 23:00:00 1 18 Sur 27 Sur 0 807.7 -0.4 100
2020-03-20 22:00:00 2.2 17 Sudeste 35 Sudeste 0 807.9 -0.7 100
2020-03-20 21:00:00 1.7 17 Sudeste 41 Sudeste 0 808.1 -0.1 100
2020-03-20 20:00:00 1.7 18 Sudeste 36 Sudeste 0 808.1 -0.5 100
2020-03-20 19:00:00 2.2 13 Sudeste 27 Este 0 808.6 -0.1 100
2020-03-20 18:00:00 2.9 7 Este 25 Sudeste 0 808.2 -0.7 100
2020-03-20 17:00:00 3.1 9 Este 22 Este 0 808.6 -0.3 100
2020-03-20 16:00:00 3.8 13 Sudeste 30 Sur 0 808.7 -0.3 100
2020-03-20 15:00:00 4.5 20 Sur 37 Sur 0 808.9 -0.3 99
2020-03-20 14:00:00 3.9 24 Sur 39 Sur 0 808.9 -0.4 100
2020-03-20 13:00:00 3.3 18 Sur 34 Sur 0 809 -0.3 100
2020-03-20 12:00:00 2 14 Sur 37 Sur 0 809.2 0.2 100
2020-03-20 11:00:00 1.6 25 Sudeste 42 Sudeste 0 809.3 0.5 100
2020-03-20 10:00:00 1.2 30 Sudeste 48 Sudeste 0 809.3 0.6 100
2020-03-20 09:00:00 1.1 27 Sudeste 46 Sur 0 809 0.4 100
2020-03-20 08:00:00 1.1 15 Sur 40 Sudeste 0 808.8 0 100
2020-03-20 07:00:00 1.3 25 Sudeste 39 Sudeste 0 808.7 -0.3 100
2020-03-20 06:00:00 1.5 24 Sudeste 41 Sur 0 808.6 -0.9 100
2020-03-20 05:00:00 1.6 27 Sudeste 45 Sur 0.2 808.8 -1.1 100
2020-03-20 04:00:00 1.9 25 Sur 47 Sur 0 809 -1 100
2020-03-20 03:00:00 2 26 Sur 45 Sudeste 0 809.5 -1 100
2020-03-20 02:00:00 2.1 27 Sudeste 51 Sudeste 0 809.9 -1 100
2020-03-20 01:00:00 2.2 26 Sudeste 49 Sur 0 810 -0.8 100
2020-03-20 00:00:00 2.2 20 Sudeste 42 Sur 0 810.5 -0.6 100
2020-03-19 23:00:00 2.6 28 Sudeste 55 Sur 0 810.9 -0.1 100
2020-03-19 22:00:00 2.8 26 Sur 48 Sudeste 0 810.8 -0.4 100
2020-03-19 21:00:00 3 28 Sudeste 44 Sudeste 0 811.1 -0.2 97
2020-03-19 20:00:00 3.2 26 Sur 39 Sudeste 0 811 -0.7 94
2020-03-19 19:00:00 3.9 24 Sudeste 34 Sudeste 0 811.2 -0.9 90
2020-03-19 18:00:00 5.8 17 Sudeste 26 Sudeste 0 811.3 -1.1 82
2020-03-19 17:00:00 7.6 9 Sudeste 23 Sudeste 0 811.7 -1.3 75
2020-03-19 16:00:00 8.4 12 Sudeste 26 Sudeste 0 812.1 -1.3 66
2020-03-19 15:00:00 8.9 10 Sudeste 24 Sudeste 0 812.4 -1.3 63
2020-03-19 14:00:00 8.8 13 Sudeste 24 Sudeste 0 813 -0.9 69
2020-03-19 13:00:00 7.6 14 Sudeste 26 Sudeste 0 813.4 -0.4 71
2020-03-19 12:00:00 6.3 9 Sudeste 26 Sudeste 0 813.7 0 80
2020-03-19 11:00:00 4 12 Sudeste 28 Sur 0 813.9 0.2 89
2020-03-19 10:00:00 3.4 20 Sudeste 31 Sudeste 0 813.8 0 96
2020-03-19 09:00:00 3.4 17 Sudeste 30 Sur 0 813.7 -0.2 96
2020-03-19 08:00:00 3.4 16 Sudeste 31 Sudeste 0 813.7 -0.4 83
2020-03-19 07:00:00 2.6 11 Sudeste 30 Sudeste 0 813.8 -0.5 100
2020-03-19 06:00:00 3 13 Sudeste 27 Sudeste 0 813.9 -0.9 97
2020-03-19 05:00:00 4 13 Sudeste 34 Este 0 814.1 -1.5 82
2020-03-19 04:00:00 4.1 12 Este 36 Este 0 814.3 -1.8 82
2020-03-19 03:00:00 4 14 Este 33 Este 0 814.8 -1.8 95
2020-03-19 02:00:00 3.7 11 Este 26 Sudeste 0 815.6 -1.4 98
2020-03-19 01:00:00 4.3 16 Este 26 Este 0 816.1 -1 97
2020-03-19 00:00:00 4.3 8 Sudeste 21 Este 0 816.6 -0.4 93
2020-03-18 23:00:00 4.6 15 Este 30 Este 0 817 -0.1 91
2020-03-18 22:00:00 4.9 17 Este 27 Este 0 817.1 0 87
2020-03-18 21:00:00 5 16 Este 28 Este 0 817 0 88
2020-03-18 20:00:00 5.8 3 Este 25 Este 0 817.1 0 74
2020-03-18 19:00:00 6 7 Este 22 Este 0 817.1 -0.2 74
2020-03-18 18:00:00 7.5 5 Este 17 Este 0 817 -0.6 76
2020-03-18 17:00:00 8.3 7 Este 19 Sudeste 0 817.1 -0.8 73
2020-03-18 16:00:00 9 7 Sudeste 24 Sudeste 0 817.3 -0.9 71
2020-03-18 15:00:00 9.5 11 Sudeste 26 Sudeste 0 817.6 -0.7 68
2020-03-18 14:00:00 9.8 14 Este 25 Sudeste 0 817.9 -0.5 62
2020-03-18 13:00:00 9.6 11 Sudeste 41 Sudeste 0 818.2 -0.3 63
2020-03-18 12:00:00 8 27 Sudeste 49 Sudeste 0 818.3 0 68
2020-03-18 11:00:00 6.5 27 Sudeste 47 Sudeste 0 818.4 0 74
2020-03-18 10:00:00 6 24 Sudeste 43 Sudeste 0 818.5 0.3 75
2020-03-18 09:00:00 5.4 13 Sudeste 41 Este 0 818.3 0.3 76
2020-03-18 08:00:00 4.5 26 Sudeste 45 Sudeste 0 818.4 0.7 80
2020-03-18 07:00:00 4 27 Este 44 Este 0 818.2 0.7 83
2020-03-18 06:00:00 4.1 19 Este 48 Este 0 818 0 81
2020-03-18 05:00:00 3.8 22 Sudeste 46 Este 0 817.7 -0.6 83
2020-03-18 04:00:00 3.7 24 Este 44 Este 0 817.5 -1.1 86
2020-03-18 03:00:00 3 19 Este 36 Este 0 818 -0.9 91
2020-03-18 02:00:00 2.8 15 Este 36 Este 0 818.3 -0.7 97
2020-03-18 01:00:00 3 9 Sudeste 35 Sudeste 0 818.6 -0.3 100
2020-03-18 00:00:00 2.9 18 Sudeste 45 Sudeste 0 818.9 0.8 100
2020-03-17 23:00:00 3.1 22 Este 39 Sudeste 0 819 1.6 100
2020-03-17 22:00:00 3.2 20 Este 41 Sudeste 0 818.9 2.1 100
2020-03-17 21:00:00 3 23 Este 58 Este 0 818.1 1.4 100
2020-03-17 20:00:00 2.8 26 Este 60 Este 0 817.4 1.4 100
2020-03-17 19:00:00 2.9 24 Este 59 Este 0 816.8 1.2 99
2020-03-17 18:00:00 3 22 Este 67 Este 0 816.7 1.3 100
2020-03-17 17:00:00 3.1 31 Este 66 Este 0 816 0.8 100
2020-03-17 16:00:00 3.1 33 Este 82 Este 0 815.6 1.4 99
2020-03-17 15:00:00 2.7 41 Este 78 Sudeste 0 815.4 1.1 100
2020-03-17 14:00:00 2.4 32 Este 87 Este 0 815.2 1.5 100
2020-03-17 13:00:00 2.5 43 Este 83 Este 0 814.2 1.1 100
2020-03-17 12:00:00 1.4 40 Este 82 Sudeste 0 814.3 1.4 100
2020-03-17 11:00:00 1.4 45 Este 85 Este 0 813.7 1.4 100
2020-03-17 10:00:00 0.8 40 Este 93 Este 0 813.1 1.3 100
2020-03-17 09:00:00 0.6 31 Este 68 Este 0.2 812.9 1.5 100
2020-03-17 08:00:00 0.3 37 Este 82 Este 3.8 812.3 1.8 100
2020-03-17 07:00:00 0.2 33 Este 71 Este 1 811.8 1.5 100
2020-03-17 06:00:00 -0.5 19 Este 50 Este 1.6 811.4 1.3 100
2020-03-17 05:00:00 -0.9 27 Este 58 Este 2.2 810.5 0.5 100
2020-03-17 04:00:00 -1.1 30 Este 61 Este 1.4 810.3 1 100
2020-03-17 03:00:00 -1.2 27 Este 56 Este 1.6 810.1 1.5 100
2020-03-17 02:00:00 -2.4 30 Este 59 Este 2.2 810 1.6 100
2020-03-17 01:00:00 -3.1 41 Sudeste 69 Este 2.4 809.3 1.4 100
2020-03-17 00:00:00 -2.5 36 Este 71 Este 1.6 808.6 1.7 100
2020-03-16 23:00:00 -1.6 25 Este 58 Este 1.6 808.4 1.9 100
2020-03-16 22:00:00 -2 13 Este 44 Este 1.8 807.9 2.2 100
2020-03-16 21:00:00 -1.8 21 Este 59 Este 1.2 806.9 1.8 100
2020-03-16 20:00:00 -2.6 14 Nordeste 30 Nordeste 1.8 806.5 1.9 100
2020-03-16 19:00:00 -2.6 10 Este 36 Nordeste 0.8 805.7 1.5 100
2020-03-16 18:00:00 -2.8 22 Nordeste 60 Nordeste 0.4 805.1 1.3 99
2020-03-16 17:00:00 -1.3 21 Este 49 Este 0.4 804.6 1.1 97
2020-03-16 16:00:00 -1.2 18 Este 46 Nordeste 1.8 804.2 0.7 98
2020-03-16 15:00:00 -1.2 22 Este 46 Nordeste 1.2 803.8 0.4 99
2020-03-16 14:00:00 -1.2 8 Nordeste 18 Nordeste 3 803.5 0.4 100
2020-03-16 13:00:00 -2.2 3 Nordeste 11 Noroeste 4 803.5 1.2 99
2020-03-16 12:00:00 -2.7 2 Norte 15 Este 3.2 803.4 1.8 100
2020-03-16 11:00:00 -3.2 4 Sudeste 11 Este 3.2 803.1 1.8 100
2020-03-16 10:00:00 -4.1 5 Noroeste 17 Noroeste 1.6 802.3 1.2 100
2020-03-16 09:00:00 -4.4 7 Norte 19 Norte 1 801.6 0.5 100
2020-03-16 08:00:00 -4.6 6 Noroeste 18 Noroeste 0.4 801.3 0.5 100
2020-03-16 07:00:00 -4.5 8 Noroeste 21 Norte 1 801.1 -0.5 100
2020-03-16 06:00:00 -4.1 10 Norte 20 Norte 0 801.1 -1.6 100
2020-03-16 05:00:00 -3.6 5 Norte 18 Norte 0 800.8 -2.3 100
2020-03-16 04:00:00 -3.1 8 Norte 20 Nordeste 0.2 801.6 -2.1 100
2020-03-16 03:00:00 -2.7 8 Norte 21 Noroeste 0 802.7 -1.7 100
2020-03-16 02:00:00 -1.7 7 Noroeste 19 Norte 0 803.1 -2 100
2020-03-16 01:00:00 -0.3 4 Norte 22 Norte 0 803.7 -1.6 100
2020-03-16 00:00:00 1.5 6 Noroeste 23 Oeste 0 804.4 -1 100
2020-03-15 23:00:00 2.9 12 Noroeste 30 Sur 0 805.1 -0.7 98
2020-03-15 22:00:00 3.7 16 Sudoeste 28 Sudoeste 0 805.3 -0.8 99
2020-03-15 21:00:00 3.3 12 Oeste 48 Oeste 0 805.4 -0.7 94
2020-03-15 20:00:00 3.9 19 Oeste 50 Oeste 1.2 805.8 -0.9 82
2020-03-15 19:00:00 3.9 30 Oeste 69 Oeste 2.2 806.1 -1.1 92
2020-03-15 18:00:00 7.5 28 Sudoeste 48 Sur 0 806.1 -1.5 76
2020-03-15 17:00:00 7.9 23 Sudoeste 52 Sudoeste 0 806.7 -1.9 74
2020-03-15 16:00:00 7.3 25 Sudoeste 44 Sur 0 807.2 -2.1 87
2020-03-15 15:00:00 8.4 22 Sur 46 Sur 0 807.6 -2.4 76
2020-03-15 14:00:00 8 22 Sudoeste 46 Sudoeste 0 808.6 -1.8 78
2020-03-15 13:00:00 9.5 17 Sur 43 Sur 0 809.3 -1.3 69
2020-03-15 12:00:00 8 17 Sur 35 Sudoeste 0 810 -0.4 70
2020-03-15 11:00:00 6.9 15 Sur 33 Sudoeste 0 810.4 0 79
2020-03-15 10:00:00 7 14 Sur 32 Sur 0 810.6 0.1 77
2020-03-15 09:00:00 6 21 Sudoeste 33 Sudoeste 0 810.4 -0.3 82
2020-03-15 08:00:00 5.1 16 Sur 33 Sur 0 810.4 -0.5 85
2020-03-15 07:00:00 5.2 18 Sur 37 Sur 0 810.5 -1.1 84
2020-03-15 06:00:00 5.2 19 Sur 42 Sur 0 810.7 -1.5 82
2020-03-15 05:00:00 5.6 19 Sur 39 Sur 0 810.9 -1.8 76
2020-03-15 04:00:00 5.5 18 Sur 29 Sur 0 811.6 -1.4 69
2020-03-15 03:00:00 6.2 18 Sur 24 Sur 0 812.2 -1.2 62
2020-03-15 02:00:00 6.2 14 Sur 22 Sur 0 812.7 -0.9 59
2020-03-15 01:00:00 6.4 13 Sur 24 Sur 0 813 -0.8 61
2020-03-15 00:00:00 5.9 15 Sur 24 Sur 0 813.4 -0.5 74
2020-03-14 23:00:00 5.9 18 Sur 23 Sur 0 813.6 -0.2 76
2020-03-14 22:00:00 6.2 14 Sur 21 Sur 0 813.8 0.1 74
2020-03-14 21:00:00 6.7 5 Sudoeste 9 Sudoeste 0 813.9 0.3 58
2020-03-14 20:00:00 7.2 5 Noroeste 10 Noroeste 0 813.8 0.2 54
2020-03-14 19:00:00 9 8 Noroeste 18 Noroeste 0 813.7 -0.1 57
2020-03-14 18:00:00 9.1 5 Noroeste 14 Noroeste 0 813.6 -0.4 66
2020-03-14 17:00:00 10.1 4 Oeste 14 Oeste 0 813.6 -0.8 58
2020-03-14 16:00:00 8.6 6 Oeste 13 Noroeste 0 813.8 -1 63
2020-03-14 15:00:00 9.4 7 Oeste 21 Noroeste 0 814 -0.8 62
2020-03-14 14:00:00 9.2 5 Norte 18 Norte 0 814.4 -0.4 67
2020-03-14 13:00:00 10.2 4 Oeste 12 Noroeste 0 814.8 0.3 62
2020-03-14 12:00:00 11.2 4 Noroeste 10 Noroeste 0 814.8 0.6 48
2020-03-14 11:00:00 11 3 Noroeste 12 Nordeste 0 814.8 1 36
2020-03-14 10:00:00 9.9 7 Este 12 Este 0 814.5 0.9 31
2020-03-14 09:00:00 6.4 4 Norte 15 Norte 0 814.2 0.7 43
2020-03-14 08:00:00 4.9 11 Norte 14 Norte 0 813.8 0.6 40
2020-03-14 07:00:00 3.7 6 Noroeste 15 Norte 0 813.6 0.1 74
2020-03-14 06:00:00 4.1 4 Oeste 9 Noroeste 0 813.5 -0.1 75
2020-03-14 05:00:00 4.4 6 Noroeste 12 Norte 0 813.2 -0.9 90
2020-03-14 04:00:00 4.1 6 Norte 12 Norte 0 813.5 -0.7 100
2020-03-14 03:00:00 4.3 7 Noroeste 10 Este 0 813.6 -0.5 100
2020-03-14 02:00:00 4.8 4 Norte 15 Norte 0 814.1 0 100
2020-03-14 01:00:00 4.9 8 Norte 18 Norte 0 814.2 0.4 100
2020-03-14 00:00:00 5.8 5 Noroeste 14 Noroeste 0 814.1 0.5 100
2020-03-13 23:00:00 6 7 Noroeste 15 Norte 0 814.1 0.9 98
2020-03-13 22:00:00 6 6 Norte 12 Norte 0 813.8 0.9 98
2020-03-13 21:00:00 6.6 4 Norte 14 Noroeste 0 813.6 0.9 99
2020-03-13 20:00:00 6.9 6 Noroeste 16 Norte 0 813.2 0.6 100
2020-03-13 19:00:00 7.9 6 Noroeste 14 Noroeste 0 812.9 0.4 94
2020-03-13 18:00:00 8.7 5 Noroeste 14 Noroeste 0 812.7 0.1 89
2020-03-13 17:00:00 9.7 5 Norte 15 Noroeste 0 812.6 -0.3 87
2020-03-13 16:00:00 10.9 5 Noroeste 18 Noroeste 0 812.5 -0.8 72
2020-03-13 15:00:00 14.2 6 Sudoeste 26 Sur 0 812.6 -0.7 51
2020-03-13 14:00:00 14.4 10 Sur 24 Sudoeste 0 812.9 -0.3 43
2020-03-13 13:00:00 13.3 11 Sur 24 Sudoeste 0 813.3 0 49
2020-03-13 12:00:00 13.3 12 Sudoeste 23 Sudoeste 0 813.3 0.3 49
2020-03-13 11:00:00 13.6 11 Sur 25 Sudeste 0 813.2 0.4 54
2020-03-13 10:00:00 12 10 Sudeste 19 Sur 0 813.3 0.5 61
2020-03-13 09:00:00 9.3 6 Sur 17 Sur 0 813 0.4 68
2020-03-13 08:00:00 7.5 3 Sudoeste 7 Noroeste 0 812.8 0 76
2020-03-13 07:00:00 7.5 6 Oeste 8 Oeste 0 812.8 -0.1 80
2020-03-13 06:00:00 7.8 3 Oeste 7 Noroeste 0 812.6 -1 79
2020-03-13 05:00:00 8.2 4 Noroeste 10 Noroeste 0 812.8 -1.1 75
2020-03-13 04:00:00 8.5 3 Oeste 8 Oeste 0 812.9 -1.4 74
2020-03-13 03:00:00 8.6 4 Noroeste 11 Oeste 0 813.6 -1.1 73
2020-03-13 02:00:00 8.7 8 Oeste 12 Norte 0 813.9 -0.9 73
2020-03-13 01:00:00 8.8 9 Oeste 11 Oeste 0 814.3 -0.4 73
2020-03-13 00:00:00 8.9 7 Oeste 10 Oeste 0 814.7 0.1 69
2020-03-12 23:00:00 9.5 5 Norte 10 Norte 0 814.8 0.2 63
2020-03-12 22:00:00 10.3 5 Sudoeste 20 Sudoeste 0 814.7 0.1 55
2020-03-12 21:00:00 10.4 9 Sur 26 Sudoeste 0 814.6 0.2 60
2020-03-12 20:00:00 10.7 15 Sur 25 Sudoeste 0 814.6 0.2 62
2020-03-12 19:00:00 11.3 13 Sur 26 Sur 0 814.6 -0.1 61
2020-03-12 18:00:00 13 17 Sudoeste 30 Sudoeste 0 814.4 -0.9 52
2020-03-12 17:00:00 14.6 18 Sudoeste 35 Sur 0 814.4 -1.7 46
2020-03-12 16:00:00 14.6 18 Sur 43 Sur 0 814.7 -2.1 42
2020-03-12 15:00:00 14.9 19 Sur -- -- -- 815.3 -1.8 46
2020-03-12 14:00:00 15.2 25 Sudoeste 47 Sur 0 816.1 -1.1 41
2020-03-12 13:00:00 14.1 24 Sudoeste 40 Sudoeste 0 816.8 -0.3 45
2020-03-12 12:00:00 13.7 13 Sur 45 Sur 0 817.1 0 49
2020-03-12 11:00:00 13 14 Sur 41 Sur 0 817.2 0.5 53
2020-03-12 10:00:00 12.2 13 Sudoeste 27 Sur 0 817.1 0.5 56
2020-03-12 09:00:00 11.2 15 Sur 35 Sudoeste 0 817.1 0.4 56
2020-03-12 08:00:00 10.5 23 Sur 40 Sudoeste 0 816.7 -0.3 56
2020-03-12 07:00:00 10.6 24 Sur 38 Sur 0 816.6 -0.9 51
2020-03-12 06:00:00 10.3 23 Sur 39 Sur 0 816.7 -1.5 57
2020-03-12 05:00:00 11.1 24 Sur 35 Sudoeste 0 817 -1.6 41
2020-03-12 04:00:00 11.4 21 Sudoeste 31 Sudoeste 0 817.5 -1.4 37
2020-03-12 03:00:00 11.3 22 Sudoeste 35 Sudoeste 0 818.2 -1 42
2020-03-12 02:00:00 11.2 17 Sudoeste 29 Sudoeste 0 818.6 -0.8 54
2020-03-12 01:00:00 11.4 13 Sudoeste 22 Sudoeste 0 818.9 -0.4 56
2020-03-12 00:00:00 11.6 14 Sudoeste 22 Sudoeste 0 819.2 0.1 58
2020-03-11 23:00:00 11.3 10 Sur 13 Sur 0 819.4 0.1 60
2020-03-11 22:00:00 11.5 3 Nordeste 6 Noroeste 0 819.3 -0.1 56
2020-03-11 21:00:00 11.8 2 Sur 7 Noroeste 0 819.1 -0.1 55
2020-03-11 20:00:00 12.3 5 Noroeste 9 Noroeste 0 819.3 0.1 55
2020-03-11 19:00:00 13.5 5 Oeste 8 Sudoeste 0 819.4 0.1 57
2020-03-11 18:00:00 14.4 4 Sudeste 19 Sudoeste 0 819.2 -0.4 57
2020-03-11 17:00:00 17.1 8 Sudoeste 18 Sudoeste 0 819.2 -0.8 50
2020-03-11 16:00:00 17.9 10 Sudoeste 23 Sudoeste 0 819.3 -1.1 45
2020-03-11 15:00:00 18.8 6 Oeste 21 Oeste 0 819.6 -1 36
2020-03-11 14:00:00 17.7 7 Oeste 25 Noroeste 0 820 -0.7 35
2020-03-11 13:00:00 17.2 4 Noroeste 19 Noroeste 0 820.4 0 39
2020-03-11 12:00:00 15.9 8 Noroeste 26 Oeste 0 820.6 0.7 38
2020-03-11 11:00:00 14.6 10 Noroeste 21 Norte 0 820.7 1 41
2020-03-11 10:00:00 13.1 9 Noroeste 26 Noroeste 0 820.4 0.8 45
2020-03-11 09:00:00 11.3 10 Noroeste 28 Noroeste 0 819.9 0.4 48
2020-03-11 08:00:00 9.4 12 Noroeste 28 Oeste 0 819.7 0.2 53
2020-03-11 07:00:00 8.9 9 Noroeste 23 Noroeste 0 819.6 -0.2 57
2020-03-11 06:00:00 8.4 10 Noroeste 24 Noroeste 0 819.5 -0.6 62
2020-03-11 05:00:00 8.4 8 Noroeste 24 Noroeste 0 819.5 -1.1 65
2020-03-11 04:00:00 8.6 9 Noroeste 28 Noroeste 0 819.8 -1.1 66
2020-03-11 03:00:00 8.4 11 Noroeste 28 Noroeste 0 820.1 -1.1 70
2020-03-11 02:00:00 7.5 11 Norte 26 Noroeste 0 820.6 -0.7 84
2020-03-11 01:00:00 8.3 10 Norte 25 Noroeste 0 820.9 -0.4 75
2020-03-11 00:00:00 8.5 10 Noroeste 24 Noroeste 0 821.2 0 70
2020-03-10 23:00:00 8.1 12 Norte 21 Norte 0 821.3 0.3 77
2020-03-10 22:00:00 8.7 14 Norte 26 Norte 0 821.3 0.5 70
2020-03-10 21:00:00 9.5 10 Noroeste 24 Noroeste 0 821.2 0.4 61
2020-03-10 20:00:00 9.5 10 Norte 20 Norte 0 821 0.1 63
2020-03-10 19:00:00 11.9 5 Norte 17 Noroeste 0 820.8 -0.1 55
2020-03-10 18:00:00 13.7 6 Noroeste 21 Noroeste 0 820.8 -0.3 49
2020-03-10 17:00:00 14.2 8 Noroeste 23 Noroeste 0 820.9 -0.3 44
2020-03-10 16:00:00 15 8 Noroeste 20 Noroeste 0 820.9 -0.6 40
2020-03-10 15:00:00 14.2 5 Noroeste 20 Noroeste 0 821.1 -0.2 45
2020-03-10 14:00:00 14.5 8 Norte 18 Noroeste 0 821.2 0.1 41
2020-03-10 13:00:00 13.2 4 Noroeste 15 Noroeste 0 821.5 0.6 48
2020-03-10 12:00:00 11.7 7 Norte 17 Noroeste 0 821.3 0.8 57
2020-03-10 11:00:00 11.4 8 Norte 18 Norte 0 821.1 1.1 58
2020-03-10 10:00:00 7.9 10 Norte 21 Norte 0 820.9 1.2 68
2020-03-10 09:00:00 6.2 17 Norte 26 Norte 0 820.5 1.2 74
2020-03-10 08:00:00 5 15 Norte 30 Norte 0 820 1 73
2020-03-10 07:00:00 4.8 18 Norte 28 Norte 0 819.7 0.7 81
2020-03-10 06:00:00 5.2 18 Norte 35 Norte 0 819.3 0.2 80
2020-03-10 05:00:00 5.5 21 Norte 33 Norte 0 819 -0.1 77
2020-03-10 04:00:00 5 23 Norte 36 Norte 0 819 -0.3 72
2020-03-10 03:00:00 2.8 19 Norte 32 Norte 0 819.1 -0.1 70
2020-03-10 02:00:00 2.3 22 Norte 35 Norte 0 819.1 -0.1 69
2020-03-10 01:00:00 2.2 22 Norte 40 Norte 0 819.3 0.6 68
2020-03-10 00:00:00 2.4 26 Norte 51 Norte 0 819.2 0.9 65
2020-03-09 23:00:00 2.1 28 Norte 45 Norte 0 819.2 1.3 66
2020-03-09 22:00:00 1.2 27 Norte 45 Norte 0 818.7 1.1 77
2020-03-09 21:00:00 0.8 28 Norte 45 Norte 0 818.3 0.8 80
2020-03-09 20:00:00 0.8 25 Norte 43 Noroeste 0 817.9 0.4 84
2020-03-09 19:00:00 1.8 19 Norte 43 Norte 0 817.6 0.4 80
2020-03-09 18:00:00 3.1 19 Norte 41 Norte 0 817.5 -0.3 75
2020-03-09 17:00:00 3.8 18 Norte 41 Norte 0 817.5 -0.5 73
2020-03-09 16:00:00 3.6 17 Norte 42 Norte 0 817.2 -1 81
2020-03-09 15:00:00 3.4 17 Norte 37 Norte 0 817.8 -0.7 78
2020-03-09 14:00:00 2.8 15 Norte 32 Norte 0 818 -0.1 91
2020-03-09 13:00:00 1.3 17 Norte 31 Norte 0 818.2 0.9 100
2020-03-09 12:00:00 0.1 17 Norte 29 Norte 0 818.5 1.6 100
2020-03-09 11:00:00 -1.3 18 Norte 33 Norte 0 818.1 1.8 100
2020-03-09 10:00:00 -1.8 17 Norte 36 Norte 0 817.3 1.4 100
2020-03-09 09:00:00 -1.8 17 Norte 40 Norte 0 816.9 0.9 100
2020-03-09 08:00:00 -1.6 21 Norte 34 Norte 0 816.3 0.3 100
2020-03-09 07:00:00 -1.5 21 Norte 42 Norte 0 815.9 0 100
2020-03-09 06:00:00 -1.2 23 Norte 50 Norte 0 816 -0.1 100
2020-03-09 05:00:00 -0.9 26 Norte 57 Norte 0 816 -0.4 100
2020-03-09 04:00:00 -0.7 27 Norte 65 Norte 0 815.9 -0.4 100
2020-03-09 03:00:00 -0.5 27 Norte 69 Noroeste 0 816.1 -0.5 100
2020-03-09 02:00:00 0.7 33 Norte 71 Norte 0 816.4 -0.6 100
2020-03-09 01:00:00 1.1 23 Noroeste 64 Noroeste 0 816.3 -0.9 100
2020-03-09 00:00:00 1.2 21 Noroeste 55 Noroeste 0 816.6 -0.4 100
2020-03-08 23:00:00 1.3 18 Noroeste 50 Noroeste 0 817 0 100
2020-03-08 22:00:00 1.3 19 Noroeste 46 Noroeste 0 817.2 0.3 100
2020-03-08 21:00:00 1.9 12 Noroeste 39 Noroeste 0 817 0.2 100
2020-03-08 20:00:00 2.1 12 Noroeste 36 Noroeste 0 817 0.3 100
2020-03-08 19:00:00 2.7 9 Noroeste 26 Noroeste 0 816.9 0.2 100
2020-03-08 18:00:00 3.9 10 Noroeste 29 Norte 0 816.8 0.1 91
2020-03-08 17:00:00 4.3 12 Norte 28 Noroeste 0 816.7 -0.8 78
2020-03-08 16:00:00 6.2 8 Noroeste 35 Norte 0 816.7 -1.1 64
2020-03-08 15:00:00 6.1 13 Norte 27 Noroeste 0 816.7 -1.1 57
2020-03-08 14:00:00 5.5 9 Norte 24 Norte 0 817.5 -0.3 48
2020-03-08 13:00:00 5 11 Norte 26 Norte 0 817.8 0.4 45
2020-03-08 12:00:00 3.7 15 Norte 27 Norte 0 817.8 0.9 45
2020-03-08 11:00:00 3.2 14 Norte 31 Norte 0 817.8 1.3 47
2020-03-08 10:00:00 4.1 16 Norte 32 Norte 0 817.4 0.8 33
2020-03-08 09:00:00 2.8 12 Nordeste 34 Norte 0 816.9 0.4 39
2020-03-08 08:00:00 1.9 12 Norte 24 Norte 0 816.5 0 15
2020-03-08 07:00:00 1.3 10 Nordeste 20 Noroeste 0 816.6 -0.2 27
2020-03-08 06:00:00 3.2 10 Noroeste 21 Noroeste 0 816.5 -0.5 10
2020-03-08 05:00:00 2.4 9 Norte 25 Noroeste 0 816.5 -0.7 15
2020-03-08 04:00:00 2.9 12 Norte 21 Norte 0 816.8 -0.7 14
2020-03-08 03:00:00 2.7 6 Norte 17 Norte 0 817 -1 13
2020-03-08 02:00:00 2.7 12 Norte 21 Norte 0 817.2 -1 15
2020-03-08 01:00:00 1.5 14 Norte 22 Norte 0 817.5 -0.3 27
2020-03-08 00:00:00 0.2 17 Norte 28 Norte 0 818 0.2 48
2020-03-07 23:00:00 1.1 17 Norte 26 Norte 0 818.2 0.4 50
2020-03-07 22:00:00 1 14 Norte 21 Norte 0 817.8 0.5 46
2020-03-07 21:00:00 0.7 12 Nordeste 18 Norte 0 817.8 0.8 77
2020-03-07 20:00:00 0.1 14 Norte 24 Norte 0 817.8 0.8 99
2020-03-07 19:00:00 1 11 Norte 19 Norte 0 817.3 0.3 95
2020-03-07 18:00:00 2.4 9 Norte 22 Norte 0 817 -0.2 91
2020-03-07 17:00:00 3 5 Norte 18 Norte 0 817 -0.1 89
2020-03-07 16:00:00 1.7 9 Noroeste 22 Norte 0 817 -0.3 94
2020-03-07 15:00:00 1.8 8 Norte 30 Norte 0 817.2 -0.2 96
2020-03-07 14:00:00 1.5 8 Norte 29 Norte 0 817.1 0.1 100
2020-03-07 13:00:00 1.3 11 Noroeste 33 Noroeste 0 817.3 0.9 100
2020-03-07 12:00:00 0.1 14 Norte 30 Norte 0 817.4 1.6 100
2020-03-07 11:00:00 -1.4 15 Norte 42 Norte 0 817 1.9 100
2020-03-07 10:00:00 -2.1 19 Norte 42 Norte 0 816.4 1.9 100
2020-03-07 09:00:00 -3 22 Norte 43 Norte 0 815.8 1.8 100
2020-03-07 08:00:00 -3.9 26 Norte 47 Norte 0 815.1 1.3 100
2020-03-07 07:00:00 -4.8 23 Norte 41 Norte 0 814.5 0.7 100
2020-03-07 06:00:00 -5.4 23 Norte 41 Norte 0 814 0.4 100
2020-03-07 05:00:00 -5.7 23 Norte 39 Norte 0 813.8 0.1 100
2020-03-07 04:00:00 -5.3 18 Norte 46 Norte 0 813.8 0.2 100
2020-03-07 03:00:00 -5 24 Norte 45 Norte 0 813.6 0.3 100
2020-03-07 02:00:00 -4.9 27 Norte 58 Norte 0 813.7 0.6 100
2020-03-07 01:00:00 -4.9 28 Norte 53 Norte 0 813.6 0.8 100
2020-03-07 00:00:00 -4.8 24 Norte 59 Norte 0 813.3 1.4 100
2020-03-06 23:00:00 -4.6 31 Norte 64 Noroeste 0 813.1 1.9 99
2020-03-06 22:00:00 -3.8 31 Norte 72 Noroeste 0 812.8 1.8 92
2020-03-06 21:00:00 -3.8 27 Norte 67 Noroeste 0 811.9 1.7 94
2020-03-06 20:00:00 -2.9 31 Noroeste 72 Noroeste 0 811.2 1.4 87
2020-03-06 19:00:00 -2.6 26 Norte 77 Noroeste 0 811 1.6 88
2020-03-06 18:00:00 -2.6 31 Noroeste 85 Noroeste 0 810.2 1.1 87
2020-03-06 17:00:00 -2.6 31 Noroeste 68 Noroeste 0 809.8 0.8 90
2020-03-06 16:00:00 -2.9 27 Noroeste 76 Noroeste 0 809.4 0.8 98
2020-03-06 15:00:00 -3.3 27 Noroeste 81 Norte 0 809.1 1.4 100
2020-03-06 14:00:00 -3.5 31 Noroeste 80 Noroeste 0 809 1.5 100
2020-03-06 13:00:00 -3.5 36 Noroeste 86 Noroeste 0 808.6 1.7 100
2020-03-06 12:00:00 -3.6 34 Noroeste 103 Noroeste 0 807.7 1.2 100
2020-03-06 11:00:00 -3.7 27 Noroeste 90 Noroeste 0 807.5 1.4 100
2020-03-06 10:00:00 -3.7 27 Noroeste 83 Noroeste 0 806.9 1.1 100
2020-03-06 09:00:00 -3.8 29 Noroeste 91 Noroeste 0 806.5 0.5 100
2020-03-06 08:00:00 -3.5 22 Noroeste 87 Noroeste 0 806.1 0.5 100
2020-03-06 07:00:00 -2.9 25 Noroeste 80 Noroeste 0 805.8 -0.2 100
2020-03-06 06:00:00 -2.3 22 Noroeste 71 Noroeste 0.2 806 -0.9 100
2020-03-06 05:00:00 -1.9 24 Noroeste 76 Oeste 1 805.6 -1.7 100
2020-03-06 04:00:00 -2.1 23 Oeste 68 Oeste 0 806 -1.1 100
2020-03-06 03:00:00 -2.7 19 Noroeste 62 Noroeste 0 806.9 -0.4 100
2020-03-06 02:00:00 -2.4 22 Noroeste 64 Noroeste 0 807.3 -0.5 100
2020-03-06 01:00:00 -2.3 18 Noroeste 67 Noroeste 0 807.1 -0.5 100
2020-03-06 00:00:00 -2.2 21 Noroeste 75 Oeste 0 807.3 0.2 100
2020-03-05 23:00:00 -1.4 20 Noroeste 67 Noroeste 0 807.8 1 100
2020-03-05 22:00:00 -1 24 Noroeste 74 Noroeste 0 807.6 1.4 100
2020-03-05 21:00:00 -0.2 22 Noroeste 64 Noroeste 0.2 807.1 1.1 100
2020-03-05 20:00:00 0.1 19 Noroeste 81 Noroeste 0 806.8 0.7 100
2020-03-05 19:00:00 0.5 23 Noroeste 73 Noroeste 0.6 806.2 0.4 100
2020-03-05 18:00:00 0.8 22 Noroeste 61 Noroeste 0 806 0.1 100
2020-03-05 17:00:00 0.8 21 Noroeste 64 Noroeste 0 806.1 0.5 100
2020-03-05 16:00:00 1.1 20 Noroeste 62 Noroeste 0 805.8 0.2 100
2020-03-05 15:00:00 0.7 22 Noroeste 66 Noroeste 0 805.9 -0.7 100
2020-03-05 14:00:00 0.9 21 Noroeste 67 Oeste 0 805.6 -0.7 100
2020-03-05 13:00:00 0.5 23 Noroeste 69 Oeste 0 805.6 -0.5 100
2020-03-05 12:00:00 -0.1 22 Noroeste 71 Noroeste 1.4 806.6 1 100
2020-03-05 11:00:00 2.2 21 Noroeste 72 Oeste 2.8 806.3 0.3 100
2020-03-05 10:00:00 3.8 34 Oeste 71 Oeste 0 806.1 0 100
2020-03-05 09:00:00 4.1 39 Oeste 85 Oeste 0 805.6 -1 99
2020-03-05 08:00:00 4.1 26 Oeste 58 Oeste 0 806 -2.1 96
2020-03-05 07:00:00 4.8 33 Oeste 78 Oeste 0 806.1 -2.8 86
2020-03-05 06:00:00 3.3 27 Sudoeste 44 Sudoeste 0 806.6 -3.5 100
2020-03-05 05:00:00 3.2 5 Oeste 31 Oeste 0 808.1 -3.1 100
2020-03-05 04:00:00 3.3 8 Oeste 27 Norte 0 808.9 -2.8 100
2020-03-05 03:00:00 3.5 11 Norte 29 Norte 0 810.1 -2.3 100
2020-03-05 02:00:00 3.5 11 Norte 26 Noroeste 0 811.2 -1.6 100
2020-03-05 01:00:00 3.4 12 Norte 37 Norte 0 811.7 -1.6 100
2020-03-05 00:00:00 3.4 12 Noroeste 39 Noroeste 0 812.4 -0.9 100
2020-03-04 23:00:00 3.4 17 Norte 41 Norte 0 812.8 -0.7 100
2020-03-04 22:00:00 3.3 17 Norte 44 Norte 0 813.3 -0.1 100
2020-03-04 21:00:00 2.9 19 Norte 44 Norte 0 813.3 -0.2 100
2020-03-04 20:00:00 2.8 15 Norte 44 Norte 0 813.5 -0.1 100
2020-03-04 19:00:00 2.7 21 Norte 37 Norte 0 813.4 -0.6 100
2020-03-04 18:00:00 2.9 15 Norte 41 Norte 0 813.5 -0.6 100
2020-03-04 17:00:00 3 19 Norte 43 Norte 0 813.6 -0.9 100
2020-03-04 16:00:00 2.9 19 Norte 40 Norte 0 814 -0.7 100
2020-03-04 15:00:00 3 22 Norte 49 Norte 0 814.1 -0.6 100
2020-03-04 14:00:00 3 14 Norte 41 Norte 0 814.5 -0.3 100
2020-03-04 13:00:00 2.5 17 Norte 43 Noroeste 0 814.7 0.1 100
2020-03-04 12:00:00 2.5 18 Norte 38 Norte 0 814.7 0.5 100
2020-03-04 11:00:00 2.3 21 Norte 45 Norte 0 814.8 1.1 100
2020-03-04 10:00:00 2.1 25 Norte 54 Norte 0 814.6 1.1 100
2020-03-04 09:00:00 2.2 23 Norte 45 Norte 0.2 814.2 0.8 100
2020-03-04 08:00:00 3 24 Norte 47 Norte 0.4 813.7 0.5 100
2020-03-04 07:00:00 2.9 20 Norte 45 Noroeste 0.2 813.5 0.2 100
2020-03-04 06:00:00 3.6 18 Norte 51 Norte 1 813.4 -0.2 100
2020-03-04 05:00:00 4.2 19 Noroeste 52 Noroeste 1.2 813.2 -0.5 100
2020-03-04 04:00:00 4.5 17 Noroeste 62 Noroeste 1.2 813.3 -0.3 100
2020-03-04 03:00:00 4.8 20 Noroeste 59 Noroeste 2 813.6 0.1 100
2020-03-04 02:00:00 4.9 18 Noroeste 64 Noroeste 2 813.7 0.1 100
2020-03-04 01:00:00 4.8 17 Noroeste 54 Oeste 1 813.6 0.8 100
2020-03-04 00:00:00 4.9 19 Noroeste 50 Oeste 2.2 813.5 1.1 100
2020-03-03 23:00:00 4.9 19 Noroeste 53 Oeste 4.6 813.6 1.6 100
2020-03-03 22:00:00 4.8 22 Noroeste 63 Noroeste 3.6 812.8 1.5 100
2020-03-03 21:00:00 4.5 21 Noroeste 73 Noroeste 0 812.4 1.7 100
2020-03-03 20:00:00 4.9 17 Noroeste 68 Noroeste 0.2 812 1.8 100
2020-03-03 19:00:00 4.8 23 Oeste 79 Noroeste 0 811.3 1.4 100
2020-03-03 18:00:00 4.3 19 Oeste 70 Oeste 0 810.7 1.2 100
2020-03-03 17:00:00 4 24 Noroeste 74 Noroeste 0 810.2 0.9 100
2020-03-03 16:00:00 3.9 21 Noroeste 77 Oeste 0.2 809.9 0.8 100
2020-03-03 15:00:00 3.9 24 Noroeste 81 Noroeste 1 809.5 0.2 100
2020-03-03 14:00:00 3.6 31 Noroeste 94 Noroeste 1.8 809.3 0.2 100
2020-03-03 13:00:00 2.9 24 Noroeste 93 Noroeste 1.2 809.1 0.5 100
2020-03-03 12:00:00 2.1 23 Oeste 72 Noroeste 1.6 809.3 0.9 100
2020-03-03 11:00:00 1.3 24 Oeste 73 Oeste 0.8 809.1 0.7 100
2020-03-03 10:00:00 0.3 27 Oeste 83 Oeste 0.4 808.6 0.3 100
2020-03-03 09:00:00 -0.2 29 Oeste 76 Oeste 0.2 808.4 0 100
2020-03-03 08:00:00 -0.6 20 Oeste 80 Oeste 0.8 808.4 0 100
2020-03-03 07:00:00 -0.8 23 Oeste 59 Noroeste 0.2 808.3 -0.3 100
2020-03-03 06:00:00 -1.5 17 Oeste 57 Oeste 0.4 808.4 -0.5 100
2020-03-03 05:00:00 -2.3 19 Noroeste 48 Noroeste 0 808.4 -0.4 100
2020-03-03 04:00:00 -2.8 19 Noroeste 50 Norte 0 808.6 -0.3 100
2020-03-03 03:00:00 -3.2 19 Noroeste 58 Noroeste 0 808.9 -0.1 100
2020-03-03 02:00:00 -3.5 21 Noroeste 64 Noroeste 0 808.8 -0.4 100
2020-03-03 01:00:00 -3.9 19 Noroeste 56 Noroeste 0 808.9 0.3 100
2020-03-03 00:00:00 -3.9 22 Norte 60 Noroeste 0 809 0.7 100
2020-03-02 23:00:00 -3.7 20 Noroeste 53 Noroeste 0 809.2 1.3 100
2020-03-02 22:00:00 -3.3 15 Noroeste 57 Oeste 0 808.6 1.9 100
2020-03-02 21:00:00 -3.5 16 Noroeste 50 Noroeste 0 808.3 2.9 100
2020-03-02 20:00:00 -3.6 23 Noroeste 60 Oeste 0 807.9 3.5 97
2020-03-02 19:00:00 -3.1 20 Noroeste 55 Oeste 0 806.7 3.2 100
2020-03-02 18:00:00 -3.3 12 Noroeste 63 Noroeste 0 805.4 3 90
2020-03-02 17:00:00 -3.1 18 Noroeste 82 Noroeste 0 804.4 2.1 99
2020-03-02 16:00:00 -3.3 25 Noroeste 76 Noroeste 0.2 803.5 1.9 100
2020-03-02 15:00:00 -2.6 19 Noroeste 101 Oeste 0.4 802.4 1.4 100
2020-03-02 14:00:00 -3.3 21 Noroeste 75 Oeste 2.4 802.3 1.6 100
2020-03-02 13:00:00 -2.9 26 Noroeste 94 Noroeste 1.4 801.6 1.6 100
2020-03-02 12:00:00 -2.2 21 Noroeste 66 Noroeste 3 801 -- 100
2020-03-02 11:00:00 -2.1 21 Noroeste 86 Noroeste 0.6 800.7 2.7 100
2020-03-02 10:00:00 -2.2 31 Noroeste 101 Oeste 0 800 2.5 100
2020-03-02 09:00:00 -1.8 31 Noroeste 93 Oeste 0 -- -- 100
2020-03-02 08:00:00 -0.6 30 Noroeste 98 Oeste 0 798 1 100
2020-03-02 07:00:00 0.8 32 Oeste 121 Noroeste 0.6 797.5 0.3 100
2020-03-02 06:00:00 0.9 39 Oeste 119 Noroeste 2.8 797.4 -1.6 100
2020-03-02 05:00:00 3.3 54 Oeste 98 Oeste 0 797 -2.7 100
2020-03-02 04:00:00 3 45 Oeste 95 Oeste 0.8 797.2 -3 100
2020-03-02 03:00:00 3.3 45 Oeste 105 Oeste 1.2 799 -2.6 100
2020-03-02 02:00:00 3.7 30 Sudoeste 91 Oeste 0.6 799.7 -2.6 100
2020-03-02 01:00:00 3.4 36 Sudoeste 99 Sudoeste 0.2 800.2 -2.8 100
2020-03-02 00:00:00 3.8 37 Sudoeste 75 Oeste 4 801.6 -2.7 100